Time;durP1;ratioP1;P1;durP2;ratioP2;P2;SDS_P1;SDS_P2;PMS_P1;PMS_P2;Temp;Humidity;BMP_temperature;BMP_pressure;BME280_temperature;BME280_humidity;BME280_pressure;Samples;Min_cycle;Max_cycle;Signal;HPM_P1;HPM_P2
2022/12/07 00:01:35;;;;;;;30.67;17.95;;;7.40;99.90;;;;;;5029457;28;20045;-70
2022/12/07 00:04:05;;;;;;;29.80;17.77;;;7.40;99.90;;;;;;5024046;28;20079;-69
2022/12/07 00:06:37;;;;;;;27.73;16.13;;;7.40;99.90;;;;;;5025704;28;20068;-70
2022/12/07 00:09:04;;;;;;;29.90;16.58;;;7.40;99.90;;;;;;5026031;28;20056;-69
2022/12/07 00:11:30;;;;;;;25.33;15.15;;;7.40;99.90;;;;;;5026972;28;20029;-68
2022/12/07 00:13:58;;;;;;;22.95;13.70;;;7.30;99.90;;;;;;5024440;28;20030;-69
2022/12/07 00:16:26;;;;;;;26.67;15.85;;;7.30;99.90;;;;;;5025340;28;20516;-70
2022/12/07 00:18:52;;;;;;;27.25;17.45;;;7.30;99.90;;;;;;5028580;28;20115;-70
2022/12/07 00:21:20;;;;;;;26.33;17.77;;;7.40;99.90;;;;;;5028920;28;20041;-69
2022/12/07 00:23:48;;;;;;;26.17;17.77;;;7.40;99.90;;;;;;5024235;28;20021;-70
2022/12/07 00:26:19;;;;;;;26.23;15.88;;;7.40;99.90;;;;;;5025292;28;20022;-69
2022/12/07 00:28:46;;;;;;;32.03;17.38;;;7.40;99.90;;;;;;5027786;28;20020;-70
2022/12/07 00:31:14;;;;;;;31.42;17.38;;;7.40;99.90;;;;;;5028740;28;20017;-71
2022/12/07 00:33:39;;;;;;;29.67;18.67;;;7.40;99.90;;;;;;5033017;28;20053;-69
2022/12/07 00:36:08;;;;;;;30.83;17.90;;;7.40;99.90;;;;;;5033406;28;20053;-71
2022/12/07 00:38:35;;;;;;;33.60;20.15;;;7.40;99.90;;;;;;5030415;28;20083;-70
2022/12/07 00:41:06;;;;;;;28.33;19.25;;;7.40;99.90;;;;;;5028767;28;20018;-71
2022/12/07 00:43:32;;;;;;;29.25;18.35;;;7.40;99.90;;;;;;5030070;28;20779;-69
2022/12/07 00:45:58;;;;;;;30.13;19.05;;;7.40;99.90;;;;;;5034965;28;20034;-70
2022/12/07 00:48:24;;;;;;;32.42;19.77;;;7.40;99.90;;;;;;5029547;28;20033;-70
2022/12/07 00:50:50;;;;;;;28.00;18.80;;;7.40;99.90;;;;;;5024515;28;20009;-71
2022/12/07 00:53:16;;;;;;;29.42;20.02;;;7.40;99.90;;;;;;5031258;28;20017;-71
2022/12/07 00:55:43;;;;;;;30.80;19.52;;;7.40;99.90;;;;;;5025411;28;20019;-71
2022/12/07 00:58:08;;;;;;;28.88;18.77;;;7.30;99.90;;;;;;5029341;28;20075;-69
2022/12/07 01:00:37;;;;;;;29.98;19.65;;;7.40;99.90;;;;;;5025301;28;20503;-71
2022/12/07 01:03:04;;;;;;;33.28;19.75;;;7.30;99.90;;;;;;5028838;28;20032;-69
2022/12/07 01:05:29;;;;;;;33.65;19.60;;;7.40;99.90;;;;;;5025988;28;20018;-69
2022/12/07 01:07:55;;;;;;;31.33;19.50;;;7.40;99.90;;;;;;5030981;28;20500;-70
2022/12/07 01:10:21;;;;;;;30.58;20.73;;;7.40;99.90;;;;;;5030106;28;20147;-70
2022/12/07 01:12:46;;;;;;;27.70;18.63;;;7.30;99.90;;;;;;5024905;28;20389;-69
2022/12/07 01:15:12;;;;;;;33.55;19.75;;;7.30;99.90;;;;;;5024930;28;20038;-69
2022/12/07 01:17:37;;;;;;;30.27;18.40;;;7.20;99.90;;;;;;5022400;28;20025;-70
2022/12/07 01:20:04;;;;;;;31.05;18.17;;;7.20;99.90;;;;;;5032242;28;20104;-70
2022/12/07 01:22:30;;;;;;;30.70;21.95;;;7.10;99.90;;;;;;5022518;28;20041;-70
2022/12/07 01:24:55;;;;;;;30.10;19.58;;;7.20;99.90;;;;;;5032154;28;20027;-70
2022/12/07 01:27:21;;;;;;;28.25;18.77;;;7.20;99.90;;;;;;5026587;28;20037;-69
2022/12/07 01:29:46;;;;;;;28.27;19.35;;;7.10;99.90;;;;;;5028872;28;20026;-70
2022/12/07 01:32:12;;;;;;;29.83;20.92;;;7.10;99.90;;;;;;5028060;28;20456;-71
2022/12/07 01:34:38;;;;;;;33.42;18.85;;;7.20;99.90;;;;;;5029465;28;20022;-70
2022/12/07 01:37:04;;;;;;;27.73;19.45;;;7.10;99.90;;;;;;5027851;28;20022;-70
2022/12/07 01:39:29;;;;;;;27.75;19.52;;;7.20;99.90;;;;;;5025948;28;20032;-70
2022/12/07 01:41:55;;;;;;;30.17;18.70;;;7.20;99.90;;;;;;5025920;28;20041;-70
2022/12/07 01:44:25;;;;;;;26.30;18.13;;;7.10;99.90;;;;;;5031116;28;20076;-70
2022/12/07 01:46:55;;;;;;;31.35;19.92;;;7.10;99.90;;;;;;5030708;28;20532;-70
2022/12/07 01:49:30;;;;;;;30.70;20.02;;;7.10;99.90;;;;;;5032267;28;20028;-69
2022/12/07 01:52:13;;;;;;;29.27;18.60;;;7.10;99.90;;;;;;5026729;28;20377;-69
2022/12/07 01:54:39;;;;;;;29.42;18.75;;;7.10;99.90;;;;;;5030699;28;20021;-70
2022/12/07 01:57:06;;;;;;;34.08;21.25;;;7.10;99.90;;;;;;5026067;28;20378;-70
2022/12/07 01:59:32;;;;;;;28.92;17.95;;;7.10;99.90;;;;;;5026769;28;20030;-70
2022/12/07 02:01:57;;;;;;;30.05;18.85;;;7.10;99.90;;;;;;5029239;28;20477;-70
2022/12/07 02:04:24;;;;;;;23.17;16.50;;;7.20;99.90;;;;;;5020605;28;20036;-69
2022/12/07 02:06:51;;;;;;;27.10;18.33;;;7.10;99.90;;;;;;5030046;28;20049;-70
2022/12/07 02:09:17;;;;;;;34.67;20.77;;;7.20;99.90;;;;;;5021047;28;20010;-69
2022/12/07 02:11:42;;;;;;;30.40;19.27;;;7.10;99.90;;;;;;5029752;28;20035;-69
2022/12/07 02:14:08;;;;;;;29.60;19.60;;;7.10;99.90;;;;;;5023075;28;20026;-69
2022/12/07 02:17:05;;;;;;;31.55;19.83;;;7.20;99.90;;;;;;5028684;28;20030;-70
2022/12/07 02:19:40;;;;;;;30.58;19.95;;;7.10;99.90;;;;;;5019483;28;20116;-70
2022/12/07 02:22:31;;;;;;;32.50;21.23;;;7.10;99.90;;;;;;5030239;28;20075;-70
2022/12/07 02:25:20;;;;;;;29.00;18.85;;;7.10;99.90;;;;;;5021794;28;20017;-69
2022/12/07 02:27:52;;;;;;;31.73;19.15;;;7.10;99.90;;;;;;5026989;28;20037;-70
2022/12/07 02:30:20;;;;;;;32.65;18.92;;;7.20;99.90;;;;;;5026438;28;20108;-70
2022/12/07 02:33:05;;;;;;;28.80;17.33;;;7.20;99.90;;;;;;5030162;28;20022;-70
2022/12/07 02:35:49;;;;;;;30.88;18.40;;;7.20;99.90;;;;;;5022645;28;20683;-70
2022/12/07 02:38:15;;;;;;;25.17;17.50;;;7.20;99.90;;;;;;5028961;28;20145;-70
2022/12/07 02:40:48;;;;;;;30.80;18.40;;;7.20;99.90;;;;;;5029444;28;20476;-70
2022/12/07 02:43:19;;;;;;;;;;;7.20;99.90;;;;;;5024623;28;20464;-67
2022/12/07 02:45:46;;;;;;;25.95;17.88;;;7.20;99.90;;;;;;5028401;28;20289;-71
2022/12/07 02:48:16;;;;;;;27.73;18.20;;;7.30;99.90;;;;;;5034040;28;20026;-71
2022/12/07 02:50:48;;;;;;;32.72;19.63;;;7.20;99.90;;;;;;5031472;28;20354;-71
2022/12/07 02:53:33;;;;;;;;;;;7.20;99.90;;;;;;5028435;28;20040;-67
2022/12/07 02:56:31;;;;;;;27.27;17.98;;;7.20;99.90;;;;;;5031549;28;20010;-70
2022/12/07 02:59:02;;;;;;;31.08;19.17;;;7.20;99.90;;;;;;5024402;28;20066;-70
2022/12/07 03:01:49;;;;;;;32.33;18.38;;;7.30;99.90;;;;;;5034290;28;20087;-70
2022/12/07 03:04:24;;;;;;;31.92;18.08;;;7.20;99.90;;;;;;5034056;28;20022;-70
2022/12/07 03:06:59;;;;;;;31.00;17.10;;;7.20;99.90;;;;;;5028342;28;20033;-70
2022/12/07 03:10:03;;;;;;;27.13;17.75;;;7.20;99.90;;;;;;5024696;28;20053;-70
2022/12/07 03:12:58;;;;;;;27.20;16.95;;;7.20;99.90;;;;;;5022940;28;20422;-69
2022/12/07 03:15:33;;;;;;;27.27;16.70;;;7.20;99.90;;;;;;5031310;28;20112;-71
2022/12/07 03:18:01;;;;;;;28.95;18.98;;;7.20;99.90;;;;;;5034164;28;20065;-70
2022/12/07 03:20:28;;;;;;;26.92;18.85;;;7.30;99.90;;;;;;5024153;28;20110;-71
2022/12/07 03:22:54;;;;;;;27.42;17.73;;;7.30;99.90;;;;;;5025499;28;20417;-70
2022/12/07 03:25:21;;;;;;;25.25;16.55;;;7.20;99.90;;;;;;5026917;28;20115;-70
2022/12/07 03:27:59;;;;;;;28.40;17.27;;;7.20;99.90;;;;;;5028336;28;20057;-70
2022/12/07 03:30:32;;;;;;;29.20;17.17;;;7.20;99.90;;;;;;5020956;28;20394;-70
2022/12/07 03:33:10;;;;;;;26.25;16.90;;;7.20;99.90;;;;;;5026366;28;20045;-70
2022/12/07 03:35:44;;;;;;;25.27;17.33;;;7.20;99.90;;;;;;5026140;28;20165;-70
2022/12/07 03:38:31;;;;;;;32.40;18.65;;;7.20;99.90;;;;;;5023776;28;20037;-70
2022/12/07 03:41:10;;;;;;;26.00;16.15;;;7.10;99.90;;;;;;5021811;28;20076;-70
2022/12/07 03:43:37;;;;;;;31.90;17.42;;;7.10;99.90;;;;;;5020228;28;20134;-70
2022/12/07 03:46:14;;;;;;;28.60;17.67;;;7.10;99.90;;;;;;5022554;28;20026;-70
2022/12/07 03:49:21;;;;;;;27.33;17.95;;;7.10;99.90;;;;;;5023694;28;20520;-71
2022/12/07 03:51:53;;;;;;;30.58;18.38;;;7.00;99.90;;;;;;5030272;28;20033;-70
2022/12/07 03:54:28;;;;;;;26.80;18.40;;;7.10;99.90;;;;;;5023478;28;20109;-70
2022/12/07 03:56:55;;;;;;;27.20;17.98;;;7.00;99.90;;;;;;5031005;28;20470;-70
2022/12/07 03:59:21;;;;;;;24.75;17.13;;;7.00;99.90;;;;;;5028576;28;20497;-70
2022/12/07 04:01:56;;;;;;;26.88;17.17;;;7.00;99.90;;;;;;5023784;28;20473;-70
2022/12/07 04:04:24;;;;;;;28.77;16.83;;;6.90;99.90;;;;;;5026978;28;20116;-70
2022/12/07 04:06:50;;;;;;;30.73;16.65;;;6.90;99.90;;;;;;5022459;28;20022;-70
2022/12/07 04:09:17;;;;;;;26.08;16.55;;;6.90;99.90;;;;;;5034281;28;20021;-69
2022/12/07 04:11:43;;;;;;;23.95;16.45;;;6.90;99.90;;;;;;5020162;28;20045;-70
2022/12/07 04:14:21;;;;;;;24.80;17.35;;;6.90;99.90;;;;;;5029161;28;20091;-70
2022/12/07 04:16:48;;;;;;;25.90;16.50;;;6.90;99.90;;;;;;5024257;28;20091;-70
2022/12/07 04:19:15;;;;;;;27.60;16.98;;;6.90;99.90;;;;;;5028182;28;20599;-70
2022/12/07 04:21:42;;;;;;;26.05;16.80;;;6.90;99.90;;;;;;5026425;28;20033;-70
2022/12/07 04:24:08;;;;;;;25.70;16.35;;;6.90;99.90;;;;;;5027648;28;20014;-70
2022/12/07 04:26:33;;;;;;;29.05;16.60;;;6.90;99.90;;;;;;5022243;28;20044;-69
2022/12/07 04:28:59;;;;;;;29.63;16.75;;;6.80;99.90;;;;;;5027786;28;20022;-68
2022/12/07 04:31:24;;;;;;;26.45;16.02;;;6.90;99.90;;;;;;5023148;28;20029;-68
2022/12/07 04:33:50;;;;;;;28.77;16.75;;;6.90;99.90;;;;;;5028179;28;20379;-69
2022/12/07 04:36:16;;;;;;;29.35;18.08;;;7.00;99.90;;;;;;5026121;28;20036;-70
2022/12/07 04:38:41;;;;;;;28.05;16.85;;;6.90;99.90;;;;;;5023902;28;20096;-70
2022/12/07 04:41:08;;;;;;;26.30;15.68;;;7.00;99.90;;;;;;5027801;28;20040;-69
2022/12/07 04:43:34;;;;;;;28.38;17.15;;;6.90;99.90;;;;;;5031223;28;20033;-69
2022/12/07 04:46:00;;;;;;;27.52;16.88;;;6.90;99.90;;;;;;5018414;28;20021;-68
2022/12/07 04:48:26;;;;;;;28.95;17.10;;;7.00;99.90;;;;;;5026122;28;20071;-69
2022/12/07 04:50:52;;;;;;;35.70;19.70;;;7.00;99.90;;;;;;5025652;28;20105;-68
2022/12/07 04:53:17;;;;;;;29.27;17.50;;;6.90;99.90;;;;;;5021897;28;20026;-69
2022/12/07 04:55:44;;;;;;;28.58;18.30;;;6.90;99.90;;;;;;5023625;28;20025;-69
2022/12/07 04:58:10;;;;;;;29.70;17.55;;;7.00;99.90;;;;;;5024791;28;20022;-69
2022/12/07 05:00:36;;;;;;;34.60;20.90;;;6.90;99.90;;;;;;5028555;28;20037;-69
2022/12/07 05:03:01;;;;;;;30.38;18.00;;;6.90;99.90;;;;;;5029490;28;20025;-70
2022/12/07 05:05:27;;;;;;;33.35;17.67;;;6.90;99.90;;;;;;5022693;28;20029;-69
2022/12/07 05:07:53;;;;;;;39.42;20.75;;;6.90;99.90;;;;;;5024416;28;20038;-69
2022/12/07 05:10:18;;;;;;;30.73;20.10;;;6.80;99.90;;;;;;5030772;28;20021;-71
2022/12/07 05:12:45;;;;;;;28.60;18.90;;;6.90;99.90;;;;;;5020168;28;20486;-69
2022/12/07 05:15:11;;;;;;;33.28;19.75;;;6.80;99.90;;;;;;5024260;28;20021;-71
2022/12/07 05:17:36;;;;;;;30.42;19.02;;;6.90;99.90;;;;;;5029226;28;20047;-70
2022/12/07 05:20:02;;;;;;;31.95;18.60;;;7.00;99.90;;;;;;5027336;28;20072;-70
2022/12/07 05:22:28;;;;;;;34.65;21.42;;;7.00;99.90;;;;;;5019566;28;20113;-69
2022/12/07 05:24:56;;;;;;;38.15;19.38;;;6.90;99.90;;;;;;5027435;28;20021;-69
2022/12/07 05:27:22;;;;;;;34.35;18.85;;;6.90;99.90;;;;;;5025650;28;20026;-69
2022/12/07 05:29:49;;;;;;;33.53;18.17;;;7.00;99.90;;;;;;5024520;28;20029;-68
2022/12/07 05:32:15;;;;;;;31.38;17.33;;;7.00;99.90;;;;;;5020570;28;20116;-69
2022/12/07 05:34:41;;;;;;;36.67;19.85;;;7.00;99.90;;;;;;5027575;28;20414;-70
2022/12/07 05:37:06;;;;;;;26.98;17.25;;;6.90;99.90;;;;;;5024017;28;20418;-69
2022/12/07 05:39:32;;;;;;;35.33;19.58;;;6.90;99.90;;;;;;5026396;28;20039;-69
2022/12/07 05:42:12;;;;;;;31.13;18.20;;;6.90;99.90;;;;;;5020788;28;20069;-70
2022/12/07 05:44:39;;;;;;;34.42;17.42;;;6.90;99.90;;;;;;5023981;28;20125;-70
2022/12/07 05:47:05;;;;;;;27.42;16.85;;;6.90;99.90;;;;;;5025678;28;20038;-70
2022/12/07 05:49:31;;;;;;;31.25;17.13;;;6.90;99.90;;;;;;5022148;28;20026;-70
2022/12/07 05:51:56;;;;;;;24.13;14.00;;;6.90;99.90;;;;;;5020617;28;20032;-70
2022/12/07 05:54:22;;;;;;;21.17;13.93;;;6.80;99.90;;;;;;5022545;28;20382;-71
2022/12/07 05:56:48;;;;;;;27.38;14.70;;;6.90;99.90;;;;;;5027603;28;20037;-70
2022/12/07 05:59:23;;;;;;;22.42;13.57;;;6.90;99.90;;;;;;5021728;28;20554;-70
2022/12/07 06:01:52;;;;;;;25.95;13.90;;;7.00;99.90;;;;;;5027246;28;20049;-70
2022/12/07 06:04:19;;;;;;;23.60;12.63;;;7.00;99.90;;;;;;5017931;28;20014;-70
2022/12/07 06:06:44;;;;;;;17.20;9.93;;;7.00;99.90;;;;;;5021992;28;20378;-71
2022/12/07 06:09:10;;;;;;;18.98;9.60;;;7.00;99.90;;;;;;5026930;28;20017;-70
2022/12/07 06:14:20;;;;;;;19.65;9.23;;;7.10;99.90;;;;;;5022582;28;20048;-70
2022/12/07 06:16:46;;;;;;;20.52;9.93;;;7.00;99.90;;;;;;5020878;28;20022;-70
2022/12/07 06:19:11;;;;;;;18.63;9.55;;;7.00;99.90;;;;;;5021412;28;20368;-68
2022/12/07 06:21:37;;;;;;;18.98;10.73;;;7.00;99.90;;;;;;5024529;28;20061;-69
2022/12/07 06:24:03;;;;;;;24.23;12.30;;;7.00;99.90;;;;;;5031243;28;20022;-69
2022/12/07 06:26:29;;;;;;;23.60;12.30;;;7.00;99.90;;;;;;5032996;28;20508;-70
2022/12/07 06:28:54;;;;;;;26.35;12.93;;;7.00;99.90;;;;;;5025493;28;20052;-70
2022/12/07 06:31:20;;;;;;;26.33;14.07;;;7.00;99.90;;;;;;5031636;28;20053;-70
2022/12/07 06:33:46;;;;;;;22.95;12.45;;;7.00;99.90;;;;;;5021007;28;20033;-68
2022/12/07 06:36:11;;;;;;;26.88;14.20;;;7.00;99.90;;;;;;5029626;28;20076;-70
2022/12/07 06:38:37;;;;;;;27.35;13.65;;;7.00;99.90;;;;;;5025422;28;20452;-70
2022/12/07 06:41:03;;;;;;;23.35;14.38;;;6.90;99.90;;;;;;5030860;28;20440;-69
2022/12/07 06:43:29;;;;;;;25.17;14.30;;;6.90;99.90;;;;;;5022843;28;20036;-69
2022/12/07 06:45:54;;;;;;;26.23;14.40;;;6.90;99.90;;;;;;5026152;28;20471;-69
2022/12/07 06:48:20;;;;;;;25.45;14.98;;;6.90;99.90;;;;;;5029636;28;20033;-68
2022/12/07 06:50:46;;;;;;;30.42;15.65;;;7.00;99.90;;;;;;5027606;28;20024;-69
2022/12/07 06:53:12;;;;;;;22.23;14.80;;;7.00;99.90;;;;;;5026835;28;20030;-68
2022/12/07 06:55:37;;;;;;;26.25;15.63;;;7.00;99.90;;;;;;5027838;28;20030;-68
2022/12/07 06:58:03;;;;;;;27.02;15.25;;;7.00;99.90;;;;;;5026398;28;20084;-68
2022/12/07 07:00:29;;;;;;;28.38;16.55;;;6.90;99.90;;;;;;5028721;28;20059;-68
2022/12/07 07:02:55;;;;;;;29.23;14.57;;;6.90;99.90;;;;;;5032148;28;20471;-68
2022/12/07 07:05:21;;;;;;;24.45;14.65;;;6.90;99.90;;;;;;5027375;28;20071;-68
2022/12/07 07:07:50;;;;;;;30.33;15.00;;;6.80;99.90;;;;;;5027436;28;20022;-69
2022/12/07 07:10:16;;;;;;;29.00;16.15;;;6.80;99.90;;;;;;5024820;28;20079;-68
2022/12/07 07:12:41;;;;;;;34.72;16.80;;;6.80;99.90;;;;;;5026553;28;20113;-68
2022/12/07 07:15:07;;;;;;;33.92;16.52;;;6.80;99.90;;;;;;5034684;28;20512;-68
2022/12/07 07:17:33;;;;;;;28.10;16.33;;;6.80;99.90;;;;;;5030361;28;20072;-68
2022/12/07 07:19:58;;;;;;;27.33;17.17;;;6.70;99.90;;;;;;5025786;28;20605;-69
2022/12/07 07:22:24;;;;;;;28.13;16.80;;;6.70;99.90;;;;;;5026669;28;20537;-69
2022/12/07 07:24:49;;;;;;;26.58;15.98;;;6.70;99.90;;;;;;5031331;28;20029;-69
2022/12/07 07:27:15;;;;;;;32.85;18.00;;;6.70;99.90;;;;;;5025431;28;20155;-68
2022/12/07 07:29:41;;;;;;;25.33;15.85;;;6.70;99.90;;;;;;5025579;28;20109;-68
2022/12/07 07:32:07;;;;;;;32.22;18.20;;;6.60;99.90;;;;;;5028127;28;20489;-68
2022/12/07 07:34:33;;;;;;;34.67;18.15;;;6.60;99.90;;;;;;5030967;28;20108;-69
2022/12/07 07:36:59;;;;;;;42.50;20.90;;;6.60;99.90;;;;;;5024183;28;20083;-68
2022/12/07 07:39:24;;;;;;;37.30;19.48;;;6.60;99.90;;;;;;5029660;28;20466;-69
2022/12/07 07:41:50;;;;;;;41.20;21.30;;;6.60;99.90;;;;;;5028684;28;20037;-69
2022/12/07 07:44:15;;;;;;;41.65;22.42;;;6.60;99.90;;;;;;5026057;28;20022;-69
2022/12/07 07:46:41;;;;;;;36.25;18.45;;;6.60;99.90;;;;;;5023490;28;20037;-69
2022/12/07 07:49:06;;;;;;;43.97;22.02;;;6.60;99.90;;;;;;5025417;28;20030;-69
2022/12/07 07:51:32;;;;;;;43.70;20.95;;;6.50;99.90;;;;;;5029741;28;20096;-71
2022/12/07 07:53:57;;;;;;;38.08;20.67;;;6.50;99.90;;;;;;5022835;28;20029;-70
2022/12/07 07:56:23;;;;;;;35.72;19.50;;;6.50;99.90;;;;;;5023980;28;20423;-70
2022/12/07 07:58:52;;;;;;;41.80;21.67;;;6.50;99.90;;;;;;5030289;28;20029;-70
2022/12/07 08:01:19;;;;;;;48.55;24.75;;;6.40;99.90;;;;;;5025240;28;20037;-69
2022/12/07 08:03:45;;;;;;;51.20;27.85;;;6.40;99.90;;;;;;5027561;28;20021;-69
2022/12/07 08:06:11;;;;;;;50.97;25.55;;;6.40;99.90;;;;;;5024891;28;20025;-70
2022/12/07 08:08:37;;;;;;;53.45;26.35;;;6.40;99.90;;;;;;5030489;28;20028;-70
2022/12/07 08:11:06;;;;;;;58.58;26.23;;;6.40;99.90;;;;;;5021636;28;20018;-70
2022/12/07 08:13:31;;;;;;;49.25;27.52;;;6.40;99.90;;;;;;5026466;28;20041;-69
2022/12/07 08:15:57;;;;;;;59.00;25.30;;;6.40;99.90;;;;;;5029705;28;20029;-70
2022/12/07 08:18:23;;;;;;;47.88;26.70;;;6.40;99.90;;;;;;5028464;28;20136;-69
2022/12/07 08:20:48;;;;;;;56.10;28.45;;;6.40;99.90;;;;;;5028848;28;20481;-69
2022/12/07 08:23:14;;;;;;;54.58;29.05;;;6.40;99.90;;;;;;5023843;28;20105;-69
2022/12/07 08:25:40;;;;;;;64.20;30.95;;;6.50;99.90;;;;;;5028063;28;20021;-68
2022/12/07 08:28:06;;;;;;;54.97;30.52;;;6.50;99.90;;;;;;5031338;28;20029;-69
2022/12/07 08:30:33;;;;;;;66.68;31.10;;;6.40;99.90;;;;;;5020212;28;20022;-68
2022/12/07 08:32:58;;;;;;;52.53;29.58;;;6.50;99.90;;;;;;5025634;28;20074;-69
2022/12/07 08:35:24;;;;;;;56.15;28.50;;;6.50;99.90;;;;;;5027233;28;20264;-69
2022/12/07 08:37:50;;;;;;;56.17;28.95;;;6.50;99.90;;;;;;5030491;28;20028;-69
2022/12/07 08:40:18;;;;;;;54.63;29.27;;;6.40;99.90;;;;;;5022487;28;20402;-68
2022/12/07 08:42:50;;;;;;;54.75;29.58;;;6.40;99.90;;;;;;5025879;28;20029;-69
2022/12/07 08:45:18;;;;;;;45.85;26.48;;;6.40;99.90;;;;;;5026961;28;20048;-68
2022/12/07 08:47:53;;;;;;;48.10;26.00;;;6.40;99.90;;;;;;5023843;28;20026;-67
2022/12/07 08:50:20;;;;;;;49.15;27.33;;;6.40;99.90;;;;;;5023083;28;20029;-68
2022/12/07 08:52:51;;;;;;;42.97;24.98;;;6.50;99.90;;;;;;5019291;28;20441;-68
2022/12/07 08:55:17;;;;;;;50.88;28.00;;;6.40;99.90;;;;;;5030773;28;20421;-68
2022/12/07 08:57:42;;;;;;;54.15;28.25;;;6.50;99.90;;;;;;5027745;28;20030;-67
2022/12/07 09:00:09;;;;;;;58.33;33.60;;;6.40;99.90;;;;;;5036846;28;20132;-69
2022/12/07 09:02:35;;;;;;;66.03;35.92;;;6.50;99.90;;;;;;5029744;28;20125;-69
2022/12/07 09:05:01;;;;;;;56.72;35.17;;;6.50;99.90;;;;;;5027484;28;20100;-68
2022/12/07 09:07:27;;;;;;;51.25;28.98;;;6.50;99.90;;;;;;5021293;28;20048;-68
2022/12/07 09:09:52;;;;;;;49.70;26.35;;;6.40;99.90;;;;;;5023180;28;20064;-68
2022/12/07 09:12:18;;;;;;;43.50;24.52;;;6.40;99.90;;;;;;5021762;28;20061;-68
2022/12/07 09:14:43;;;;;;;42.15;22.90;;;6.50;99.90;;;;;;5025808;28;20033;-68
2022/12/07 09:17:11;;;;;;;46.85;24.92;;;6.50;99.90;;;;;;5028570;28;20106;-69
2022/12/07 09:19:38;;;;;;;44.72;23.67;;;6.70;99.90;;;;;;5029931;28;20017;-68
2022/12/07 09:22:04;;;;;;;40.17;23.70;;;6.70;99.90;;;;;;5024600;28;20053;-69
2022/12/07 09:24:31;;;;;;;45.42;24.80;;;6.70;99.90;;;;;;5028196;28;20017;-69
2022/12/07 09:26:58;;;;;;;35.90;21.52;;;6.80;99.90;;;;;;4989467;28;20033;-69
2022/12/07 09:29:23;;;;;;;46.85;23.13;;;6.80;99.90;;;;;;5021833;28;20087;-69
2022/12/07 09:31:49;;;;;;;35.10;20.27;;;6.90;99.90;;;;;;5024876;28;20033;-69
2022/12/07 09:34:15;;;;;;;31.42;18.10;;;6.90;99.90;;;;;;5025756;28;20034;-69
2022/12/07 09:36:42;;;;;;;34.58;18.27;;;6.90;99.90;;;;;;5021583;28;20029;-69
2022/12/07 09:39:08;;;;;;;34.67;18.67;;;6.90;99.90;;;;;;5025597;28;20029;-68
2022/12/07 09:41:39;;;;;;;31.17;17.13;;;7.00;99.90;;;;;;5025838;28;20044;-69
2022/12/07 09:44:18;;;;;;;33.80;19.08;;;7.10;99.90;;;;;;5027501;28;20030;-69
2022/12/07 09:46:44;;;;;;;45.97;20.58;;;7.20;99.90;;;;;;5016574;28;20045;-69
2022/12/07 09:49:18;;;;;;;41.78;20.20;;;7.20;99.90;;;;;;5025225;28;20040;-69
2022/12/07 09:51:44;;;;;;;36.22;18.42;;;7.20;99.90;;;;;;5026283;28;20045;-69
2022/12/07 09:54:13;;;;;;;31.98;17.77;;;7.30;99.90;;;;;;5024712;28;20033;-69
2022/12/07 09:56:39;;;;;;;32.70;16.77;;;7.30;99.90;;;;;;5023003;28;20075;-70
2022/12/07 09:59:04;;;;;;;31.30;16.80;;;7.30;99.90;;;;;;5026368;28;20029;-69
2022/12/07 10:01:33;;;;;;;30.15;16.52;;;7.40;99.90;;;;;;5030761;28;20021;-69
2022/12/07 10:04:31;;;;;;;34.00;15.40;;;7.40;99.90;;;;;;5023464;28;20030;-69
2022/12/07 10:06:57;;;;;;;28.60;15.15;;;7.40;99.90;;;;;;5014831;28;20512;-70
2022/12/07 10:09:24;;;;;;;23.25;13.68;;;7.50;99.90;;;;;;5030649;28;20005;-69
2022/12/07 10:12:02;;;;;;;31.15;13.23;;;7.40;99.90;;;;;;5030049;28;20044;-69
2022/12/07 10:14:29;;;;;;;23.33;12.48;;;7.40;99.90;;;;;;5027222;28;20039;-70
2022/12/07 10:16:55;;;;;;;21.85;12.27;;;7.40;99.90;;;;;;5029283;28;20052;-69
2022/12/07 10:19:31;;;;;;;28.17;13.00;;;7.50;99.90;;;;;;5024589;28;20037;-69
2022/12/07 10:22:05;;;;;;;21.08;11.05;;;7.40;99.90;;;;;;5026917;28;20036;-69
2022/12/07 10:24:31;;;;;;;20.58;10.68;;;7.50;99.90;;;;;;5031118;28;20385;-69
2022/12/07 10:26:57;;;;;;;22.73;12.25;;;7.50;99.90;;;;;;5027597;28;20029;-69
2022/12/07 10:29:31;;;;;;;26.33;11.75;;;7.60;99.90;;;;;;5029353;28;20025;-70
2022/12/07 10:32:06;;;;;;;21.73;12.88;;;7.60;99.90;;;;;;5029899;28;20029;-70
2022/12/07 10:34:35;;;;;;;19.92;13.05;;;7.60;99.90;;;;;;5029490;28;20029;-70
2022/12/07 10:37:17;;;;;;;26.83;13.63;;;7.60;99.90;;;;;;5028509;28;20021;-69
2022/12/07 10:39:54;;;;;;;25.25;13.70;;;7.60;99.90;;;;;;5029287;28;20101;-68
2022/12/07 10:42:31;;;;;;;19.90;10.32;;;7.70;99.90;;;;;;5031521;28;20123;-69
2022/12/07 10:45:15;;;;;;;22.92;11.80;;;7.70;99.90;;;;;;5026897;28;20442;-70
2022/12/07 10:47:55;;;;;;;19.08;9.57;;;7.80;99.90;;;;;;5028566;28;20033;-69
2022/12/07 10:50:36;;;;;;;15.45;8.20;;;7.80;99.90;;;;;;5029805;28;20084;-69
2022/12/07 10:53:26;;;;;;;17.25;7.78;;;7.80;99.90;;;;;;5028364;28;20029;-69
2022/12/07 10:56:20;;;;;;;16.02;7.10;;;7.80;99.90;;;;;;5041011;28;20381;-70
2022/12/07 10:59:09;;;;;;;14.52;5.93;;;7.90;99.90;;;;;;5024060;28;20426;-69
2022/12/07 11:02:06;;;;;;;9.30;5.05;;;7.90;99.90;;;;;;5027507;28;20048;-69
2022/12/07 11:05:09;;;;;;;13.70;5.45;;;8.00;99.90;;;;;;5023411;28;20493;-70
2022/12/07 11:07:59;;;;;;;15.48;4.25;;;8.00;99.90;;;;;;5025520;28;20481;-71
2022/12/07 11:10:42;;;;;;;13.95;4.22;;;8.00;99.90;;;;;;5028930;28;20021;-71
2022/12/07 11:13:29;;;;;;;12.63;4.25;;;8.00;99.90;;;;;;5023690;28;20039;-71
2022/12/07 11:16:13;;;;;;;10.82;3.83;;;7.90;99.90;;;;;;5056969;28;20033;-70
2022/12/07 11:19:14;;;;;;;17.50;4.60;;;8.10;99.90;;;;;;5030721;28;20115;-72
2022/12/07 11:21:42;;;;;;;13.07;4.32;;;8.10;99.90;;;;;;5023017;28;20528;-70
2022/12/07 11:24:17;;;;;;;10.18;3.97;;;8.20;99.90;;;;;;5023783;28;20080;-69
2022/12/07 11:27:22;;;;;;;12.52;4.57;;;8.20;99.90;;;;;;5022927;28;20249;-69
2022/12/07 11:30:03;;;;;;;15.55;4.53;;;8.10;99.90;;;;;;5027009;28;20029;-69
2022/12/07 11:32:51;;;;;;;10.02;4.18;;;8.10;99.90;;;;;;5027186;28;20025;-68
2022/12/07 11:35:40;;;;;;;11.93;4.47;;;8.10;99.90;;;;;;5023482;28;20598;-69
2022/12/07 11:38:23;;;;;;;16.40;4.72;;;8.10;99.90;;;;;;5025334;28;20022;-68
2022/12/07 11:40:51;;;;;;;14.75;4.88;;;8.10;99.90;;;;;;5027068;28;20112;-68
2022/12/07 11:43:26;;;;;;;14.98;5.75;;;8.10;99.90;;;;;;5025651;28;20405;-68
2022/12/07 11:46:15;;;;;;;16.40;6.25;;;8.10;99.90;;;;;;5024862;28;20025;-68
2022/12/07 11:48:55;;;;;;;18.50;6.28;;;8.00;99.90;;;;;;5023629;28;20462;-70
2022/12/07 11:51:22;;;;;;;15.88;5.80;;;8.10;99.90;;;;;;5023901;28;20478;-68
2022/12/07 11:53:58;;;;;;;13.60;7.30;;;8.10;99.90;;;;;;5025877;28;20075;-69
2022/12/07 11:56:27;;;;;;;21.75;7.13;;;8.20;99.90;;;;;;5026937;28;20035;-68
2022/12/07 11:59:10;;;;;;;13.88;6.65;;;8.20;99.90;;;;;;5024847;28;20045;-69
2022/12/07 12:01:47;;;;;;;14.15;6.88;;;8.20;99.90;;;;;;5023198;28;20521;-68
2022/12/07 12:04:40;;;;;;;14.15;8.27;;;8.30;99.90;;;;;;5026745;28;20032;-69
2022/12/07 12:07:10;;;;;;;20.70;7.70;;;8.40;99.90;;;;;;5025052;28;20037;-69
2022/12/07 12:09:54;;;;;;;16.58;7.13;;;8.40;99.90;;;;;;5025789;28;20090;-69
2022/12/07 12:12:38;;;;;;;13.18;6.47;;;8.40;99.90;;;;;;5023549;28;20540;-69
2022/12/07 12:15:27;;;;;;;20.00;6.47;;;8.30;99.90;;;;;;5025320;28;20033;-69
2022/12/07 12:18:18;;;;;;;14.43;6.20;;;8.30;99.90;;;;;;5026796;28;20021;-69
2022/12/07 12:20:56;;;;;;;10.45;5.22;;;8.40;99.90;;;;;;5027013;28;20104;-69
2022/12/07 12:23:59;;;;;;;15.98;6.13;;;8.30;99.90;;;;;;5022818;28;20029;-68
2022/12/07 12:26:30;;;;;;;14.18;6.45;;;8.40;99.90;;;;;;5005311;28;20080;-69
2022/12/07 12:29:03;;;;;;;12.40;5.63;;;8.40;99.90;;;;;;5026002;28;20033;-69
2022/12/07 12:31:41;;;;;;;15.55;7.25;;;8.40;99.90;;;;;;5021712;28;20018;-69
2022/12/07 12:34:37;;;;;;;11.98;6.30;;;8.40;99.90;;;;;;5026516;28;20029;-69
2022/12/07 12:37:35;;;;;;;13.95;6.40;;;8.40;99.90;;;;;;5025146;28;20422;-69
2022/12/07 12:40:15;;;;;;;11.68;5.97;;;8.40;99.90;;;;;;5027669;28;20025;-69
2022/12/07 12:42:47;;;;;;;15.50;5.97;;;8.40;99.90;;;;;;5020673;28;20037;-69
2022/12/07 12:45:20;;;;;;;9.82;5.35;;;8.50;99.90;;;;;;5024105;28;20029;-70
2022/12/07 12:48:28;;;;;;;15.05;5.90;;;8.40;99.90;;;;;;5024689;28;20468;-70
2022/12/07 12:51:31;;;;;;;9.57;5.22;;;8.40;99.90;;;;;;5020365;28;20135;-71
2022/12/07 12:54:21;;;;;;;14.70;5.60;;;8.40;99.90;;;;;;5022594;28;20060;-69
2022/12/07 12:56:52;;;;;;;9.95;5.45;;;8.40;99.90;;;;;;5025215;28;20021;-70
2022/12/07 12:59:20;;;;;;;15.13;6.05;;;8.40;99.90;;;;;;5021657;28;20028;-69
2022/12/07 13:01:48;;;;;;;13.77;6.20;;;8.30;99.90;;;;;;5024798;28;20045;-70
2022/12/07 13:04:49;;;;;;;12.68;5.28;;;8.40;99.90;;;;;;5025677;28;20064;-69